createdAt,value
2022-10-22T00:00:01.599Z,22.64
2022-10-22T00:02:28.245Z,22.63
2022-10-22T00:04:56.964Z,22.64
2022-10-22T00:09:52.437Z,22.63
2022-10-22T00:12:19.348Z,22.62
2022-10-22T00:14:46.052Z,22.64
2022-10-22T00:17:13.032Z,22.54
2022-10-22T00:19:40.028Z,22.63
2022-10-22T00:22:08.513Z,22.64
2022-10-22T00:24:37.139Z,22.58
2022-10-22T00:27:04.291Z,22.60
2022-10-22T00:29:31.491Z,22.63
2022-10-22T00:31:58.574Z,22.63
2022-10-22T00:34:26.776Z,22.63
2022-10-22T00:36:53.695Z,22.63
2022-10-22T00:39:22.572Z,22.61
2022-10-22T00:41:51.672Z,22.63
2022-10-22T00:44:55.952Z,22.62
2022-10-22T00:47:24.315Z,22.53
2022-10-22T00:49:53.761Z,22.62
2022-10-22T00:52:21.361Z,22.61
2022-10-22T00:54:48.070Z,22.61
2022-10-22T00:57:16.769Z,22.60
2022-10-22T00:59:43.422Z,22.60
2022-10-22T01:02:09.992Z,22.61
2022-10-22T01:04:36.581Z,22.60
2022-10-22T01:07:03.657Z,22.29
2022-10-22T01:09:30.079Z,22.60
2022-10-22T01:12:02.535Z,22.61
2022-10-22T01:14:45.584Z,22.60
2022-10-22T01:17:24.965Z,22.59
2022-10-22T01:19:51.677Z,22.59
2022-10-22T01:22:37.889Z,22.58
2022-10-22T01:25:32.748Z,22.58
2022-10-22T01:30:19.346Z,22.51
2022-10-22T01:32:56.849Z,22.55
2022-10-22T01:35:28.716Z,22.56
2022-10-22T01:38:01.920Z,22.55
2022-10-22T01:40:29.507Z,22.55
2022-10-22T01:43:01.515Z,22.55
2022-10-22T01:45:39.815Z,22.56
2022-10-22T01:48:13.366Z,22.51
2022-10-22T01:50:45.917Z,22.54
2022-10-22T01:53:41.743Z,22.54
2022-10-22T01:56:54.495Z,22.53
2022-10-22T01:59:58.967Z,22.52
2022-10-22T02:02:56.393Z,22.52
2022-10-22T02:05:43.347Z,22.50
2022-10-22T02:08:15.908Z,22.50
2022-10-22T02:10:44.768Z,22.41
2022-10-22T02:13:19.409Z,22.49
2022-10-22T02:15:48.983Z,22.50
2022-10-22T02:18:18.085Z,22.47
2022-10-22T02:20:44.688Z,22.50
2022-10-22T02:23:12.013Z,22.49
2022-10-22T02:25:41.780Z,22.49
2022-10-22T02:28:35.233Z,22.48
2022-10-22T02:31:11.251Z,22.47
2022-10-22T02:33:47.275Z,22.45
2022-10-22T02:36:15.854Z,22.46
2022-10-22T02:38:43.157Z,22.47
2022-10-22T02:41:10.194Z,22.45
2022-10-22T02:43:49.921Z,22.45
2022-10-22T02:46:16.789Z,22.45
2022-10-22T02:48:43.272Z,22.45
2022-10-22T02:51:09.805Z,22.44
2022-10-22T02:53:36.362Z,22.44
2022-10-22T02:56:02.987Z,22.41
2022-10-22T02:58:29.471Z,22.43
2022-10-22T03:00:56.121Z,22.39
2022-10-22T03:03:22.745Z,22.42
2022-10-22T03:05:50.959Z,22.40
2022-10-22T03:08:17.702Z,22.41
2022-10-22T03:10:44.357Z,22.41
2022-10-22T03:13:10.891Z,22.41
2022-10-22T03:15:37.761Z,22.41
2022-10-22T03:18:04.267Z,22.40
2022-10-22T03:20:30.786Z,22.41
2022-10-22T03:22:57.696Z,22.40
2022-10-22T03:25:27.133Z,22.41
2022-10-22T03:28:01.348Z,22.40
2022-10-22T03:30:27.869Z,22.42
2022-10-22T03:32:54.384Z,22.41
2022-10-22T03:35:21.152Z,22.41
2022-10-22T03:37:47.826Z,22.30
2022-10-22T03:40:14.751Z,22.41
2022-10-22T03:42:42.111Z,22.37
2022-10-22T03:45:09.244Z,22.41
2022-10-22T03:47:37.344Z,22.41
2022-10-22T03:50:06.264Z,22.41
2022-10-22T03:52:37.729Z,22.42
2022-10-22T03:55:05.781Z,22.33
2022-10-22T03:57:32.408Z,22.42
2022-10-22T04:02:15.520Z,22.45
2022-10-22T04:04:42.127Z,22.45
2022-10-22T04:07:08.833Z,22.44
2022-10-22T04:09:35.654Z,22.45
2022-10-22T04:12:02.389Z,22.43
2022-10-22T04:14:28.945Z,22.42
2022-10-22T04:16:55.500Z,22.42
2022-10-22T04:19:22.123Z,22.38
2022-10-22T04:21:48.767Z,22.41
2022-10-22T04:24:15.484Z,22.40
2022-10-22T04:26:42.439Z,22.40
2022-10-22T04:29:11.987Z,22.39
2022-10-22T04:31:41.861Z,22.39
2022-10-22T04:34:08.406Z,22.39
2022-10-22T04:36:34.962Z,22.38
2022-10-22T04:39:02.040Z,22.37
2022-10-22T04:41:31.890Z,22.37
2022-10-22T04:43:59.314Z,22.37
2022-10-22T04:46:28.422Z,22.36
2022-10-22T04:48:55.035Z,22.34
2022-10-22T04:51:24.222Z,22.36
2022-10-22T04:53:51.061Z,22.36
2022-10-22T04:56:23.011Z,22.35
2022-10-22T04:58:51.681Z,22.35
2022-10-22T05:01:27.012Z,22.35
2022-10-22T05:03:55.792Z,22.34
2022-10-22T05:06:23.278Z,22.34
2022-10-22T05:08:55.757Z,22.34
2022-10-22T05:11:34.885Z,22.33
2022-10-22T05:14:04.424Z,22.34
2022-10-22T05:16:32.748Z,22.33
2022-10-22T05:19:00.841Z,22.32
2022-10-22T05:21:28.285Z,22.33
2022-10-22T05:23:56.074Z,22.32
2022-10-22T05:26:24.977Z,22.32
2022-10-22T05:28:52.276Z,22.32
2022-10-22T05:31:19.443Z,22.30
2022-10-22T05:33:46.765Z,22.30
2022-10-22T05:36:19.493Z,22.31
2022-10-22T05:38:46.075Z,22.32
2022-10-22T05:41:17.651Z,22.31
2022-10-22T05:43:45.134Z,22.30
2022-10-22T05:46:22.191Z,22.30
2022-10-22T05:48:54.657Z,22.30
2022-10-22T05:51:22.696Z,22.30
2022-10-22T05:53:53.409Z,22.25
2022-10-22T05:56:20.895Z,22.31
2022-10-22T05:58:47.706Z,22.31
2022-10-22T06:01:23.783Z,22.31
2022-10-22T06:03:54.115Z,22.30
2022-10-22T06:06:22.290Z,22.30
2022-10-22T06:08:51.088Z,22.31
2022-10-22T06:11:19.857Z,22.30
2022-10-22T06:13:47.172Z,22.29
2022-10-22T06:16:14.689Z,22.30
2022-10-22T06:18:41.269Z,22.29
2022-10-22T06:21:13.509Z,22.29
2022-10-22T06:23:40.299Z,22.28
2022-10-22T06:26:07.915Z,22.28
2022-10-22T06:28:35.198Z,22.30
2022-10-22T06:31:02.620Z,22.28
2022-10-22T06:33:31.197Z,22.28
2022-10-22T06:36:07.590Z,22.28
2022-10-22T06:38:35.067Z,22.26
2022-10-22T06:41:06.479Z,22.28
2022-10-22T06:43:33.056Z,22.28
2022-10-22T06:46:05.221Z,22.27
2022-10-22T06:48:31.724Z,22.28
2022-10-22T06:51:02.816Z,22.28
2022-10-22T06:53:30.224Z,22.18
2022-10-22T06:55:57.331Z,22.23
2022-10-22T06:58:23.936Z,22.28
2022-10-22T07:00:50.452Z,22.28
2022-10-22T07:03:17.076Z,22.29
2022-10-22T07:05:43.556Z,22.29
2022-10-22T07:08:10.250Z,22.29
2022-10-22T07:10:36.812Z,22.30
2022-10-22T07:13:03.344Z,22.30
2022-10-22T07:15:29.852Z,22.30
2022-10-22T07:17:56.588Z,22.30
2022-10-22T07:20:23.088Z,22.31
2022-10-22T07:22:49.694Z,22.31
2022-10-22T07:25:16.339Z,22.33
2022-10-22T07:27:43.247Z,22.32
2022-10-22T07:30:10.184Z,22.33
2022-10-22T07:32:37.174Z,22.34
2022-10-22T07:35:04.585Z,22.26
2022-10-22T07:37:31.210Z,22.34
2022-10-22T07:40:01.332Z,22.35
2022-10-22T07:45:00.941Z,22.36
2022-10-22T07:47:27.432Z,22.36
2022-10-22T07:49:53.968Z,22.35
2022-10-22T07:52:20.593Z,22.26
2022-10-22T07:54:47.184Z,22.36
2022-10-22T07:57:13.668Z,22.37
2022-10-22T07:59:40.224Z,22.37
2022-10-22T08:02:07.133Z,22.37
2022-10-22T08:04:33.714Z,22.39
2022-10-22T08:07:00.939Z,22.39
2022-10-22T08:09:27.593Z,22.40
2022-10-22T08:11:54.701Z,22.37
2022-10-22T08:14:21.369Z,22.42
2022-10-22T08:16:47.975Z,22.43
2022-10-22T08:19:18.713Z,22.39
2022-10-22T08:21:46.111Z,22.08
2022-10-22T08:24:13.554Z,22.46
2022-10-22T08:26:40.736Z,22.47
2022-10-22T08:29:07.768Z,22.48
2022-10-22T08:31:34.859Z,22.49
2022-10-22T08:34:01.462Z,22.44
2022-10-22T08:36:28.172Z,22.46
2022-10-22T08:38:54.774Z,22.51
2022-10-22T08:41:23.418Z,22.51
2022-10-22T08:44:08.720Z,22.51
2022-10-22T08:46:52.486Z,22.48
2022-10-22T08:49:24.617Z,22.44
2022-10-22T08:51:51.525Z,22.39
2022-10-22T08:54:46.065Z,22.34
2022-10-22T08:57:52.201Z,22.31
2022-10-22T09:00:23.148Z,22.27
2022-10-22T09:02:52.520Z,22.24
2022-10-22T09:05:37.825Z,22.22
2022-10-22T09:08:08.650Z,22.19
2022-10-22T09:10:38.257Z,22.17
2022-10-22T09:13:04.879Z,22.15
2022-10-22T09:15:31.624Z,22.14
2022-10-22T09:18:23.303Z,22.12
2022-10-22T09:20:56.426Z,22.11
2022-10-22T09:23:28.815Z,22.09
2022-10-22T09:25:57.801Z,22.04
2022-10-22T09:28:24.409Z,22.10
2022-10-22T09:30:51.473Z,22.10
2022-10-22T09:33:27.037Z,22.10
2022-10-22T09:35:58.085Z,22.11
2022-10-22T09:38:41.296Z,22.10
2022-10-22T09:41:09.220Z,21.97
2022-10-22T09:43:36.136Z,22.09
2022-10-22T09:46:06.364Z,22.09
2022-10-22T09:48:40.116Z,22.07
2022-10-22T09:51:06.639Z,22.08
2022-10-22T09:53:41.561Z,22.08
2022-10-22T09:56:23.953Z,22.06
2022-10-22T09:58:51.286Z,22.04
2022-10-22T10:01:23.804Z,21.98
2022-10-22T10:03:50.407Z,22.01
2022-10-22T10:06:22.446Z,21.98
2022-10-22T10:08:49.516Z,21.96
2022-10-22T10:11:34.232Z,21.96
2022-10-22T10:14:54.574Z,21.95
2022-10-22T10:17:41.465Z,21.94
2022-10-22T10:20:15.882Z,21.93
2022-10-22T10:23:01.168Z,21.91
2022-10-22T10:26:01.143Z,21.93
2022-10-22T10:28:30.392Z,21.92
2022-10-22T10:30:59.870Z,21.90
2022-10-22T10:33:35.369Z,21.91
2022-10-22T10:36:12.836Z,21.91
2022-10-22T10:38:53.665Z,21.90
2022-10-22T10:41:29.792Z,21.81
2022-10-22T10:44:05.624Z,21.61
2022-10-22T10:46:56.676Z,21.44
2022-10-22T10:49:26.334Z,21.25
2022-10-22T10:52:18.966Z,21.07
2022-10-22T10:55:45.819Z,20.91
2022-10-22T10:58:30.212Z,20.78
2022-10-22T11:01:03.788Z,20.69
2022-10-22T11:03:48.714Z,20.60
2022-10-22T11:06:23.010Z,20.52
2022-10-22T11:09:03.061Z,20.44
2022-10-22T11:11:29.669Z,20.39
2022-10-22T11:14:27.909Z,20.32
2022-10-22T11:17:15.962Z,20.24
2022-10-22T11:19:53.784Z,20.17
2022-10-22T11:23:18.025Z,20.11
2022-10-22T11:25:47.741Z,20.05
2022-10-22T11:28:21.142Z,20.00
2022-10-22T11:30:56.462Z,19.98
2022-10-22T11:33:28.753Z,19.96
2022-10-22T11:35:58.646Z,19.93
2022-10-22T11:38:26.437Z,19.91
2022-10-22T11:41:02.469Z,19.89
2022-10-22T11:43:32.801Z,20.03
2022-10-22T11:46:24.611Z,20.17
2022-10-22T11:49:17.069Z,20.35
2022-10-22T11:51:44.534Z,20.49
2022-10-22T11:54:42.680Z,20.64
2022-10-22T11:57:15.125Z,20.76
2022-10-22T11:59:49.686Z,20.86
2022-10-22T12:02:28.221Z,20.95
2022-10-22T12:05:22.324Z,20.70
2022-10-22T12:08:14.853Z,21.09
2022-10-22T12:11:10.559Z,21.15
2022-10-22T12:13:58.621Z,21.19
2022-10-22T12:16:37.760Z,21.22
2022-10-22T12:19:24.380Z,21.29
2022-10-22T12:22:19.360Z,21.32
2022-10-22T12:24:49.494Z,21.36
2022-10-22T12:27:28.252Z,21.38
2022-10-22T12:29:59.377Z,21.41
2022-10-22T12:32:37.690Z,21.45
2022-10-22T12:35:11.673Z,21.48
2022-10-22T12:37:38.683Z,21.52
2022-10-22T12:40:24.116Z,21.54
2022-10-22T12:43:12.418Z,21.59
2022-10-22T12:45:40.016Z,21.60
2022-10-22T12:48:14.301Z,21.64
2022-10-22T12:50:43.771Z,21.67
2022-10-22T12:53:29.661Z,21.70
2022-10-22T12:56:01.268Z,21.68
2022-10-22T12:58:33.323Z,21.76
2022-10-22T13:01:03.398Z,21.77
2022-10-22T13:03:33.524Z,21.79
2022-10-22T13:06:34.598Z,21.79
2022-10-22T13:09:04.023Z,21.81
2022-10-22T13:11:48.206Z,21.81
2022-10-22T13:14:18.177Z,21.81
2022-10-22T13:17:08.404Z,21.83
2022-10-22T13:19:55.272Z,21.85
2022-10-22T13:22:29.764Z,21.86
2022-10-22T13:24:58.958Z,21.90
2022-10-22T13:27:28.220Z,21.93
2022-10-22T13:29:56.477Z,21.97
2022-10-22T13:32:30.590Z,22.00
2022-10-22T13:35:00.761Z,21.99
2022-10-22T13:37:30.723Z,22.05
2022-10-22T13:39:57.300Z,22.06
2022-10-22T13:42:23.877Z,21.96
2022-10-22T13:44:50.730Z,22.10
2022-10-22T13:47:24.003Z,22.10
2022-10-22T13:49:50.850Z,22.15
2022-10-22T13:52:44.427Z,22.15
2022-10-22T13:55:30.665Z,22.17
2022-10-22T13:58:11.145Z,22.17
2022-10-22T14:00:39.722Z,22.13
2022-10-22T14:03:11.153Z,22.09
2022-10-22T14:05:37.935Z,22.18
2022-10-22T14:08:11.897Z,22.18
2022-10-22T14:10:38.949Z,22.18
2022-10-22T14:13:07.812Z,22.19
2022-10-22T14:15:34.691Z,22.09
2022-10-22T14:18:01.578Z,22.20
2022-10-22T14:20:30.544Z,22.19
2022-10-22T14:23:11.177Z,22.21
2022-10-22T14:25:37.757Z,22.21
2022-10-22T14:28:04.388Z,22.20
2022-10-22T14:30:32.805Z,22.22
2022-10-22T14:32:59.384Z,22.23
2022-10-22T14:35:26.139Z,22.22
2022-10-22T14:37:52.768Z,22.22
2022-10-22T14:40:20.854Z,22.22
2022-10-22T14:42:48.837Z,22.23
2022-10-22T14:45:23.016Z,22.23
2022-10-22T14:47:51.161Z,22.23
2022-10-22T14:50:18.745Z,22.24
2022-10-22T14:52:45.553Z,22.22
2022-10-22T14:55:14.532Z,22.23
2022-10-22T14:57:41.500Z,22.23
2022-10-22T15:00:18.761Z,22.24
2022-10-22T15:02:48.328Z,22.23
2022-10-22T15:05:15.795Z,22.23
2022-10-22T15:07:42.681Z,22.22
2022-10-22T15:10:09.980Z,22.24
2022-10-22T15:12:36.771Z,22.13
2022-10-22T15:15:04.100Z,22.24
2022-10-22T15:17:31.004Z,22.14
2022-10-22T15:20:00.472Z,22.25
2022-10-22T15:22:28.502Z,22.22
2022-10-22T15:24:55.119Z,22.24
2022-10-22T15:27:21.674Z,22.25
2022-10-22T15:29:48.244Z,22.25
2022-10-22T15:32:14.921Z,22.25
2022-10-22T15:34:41.395Z,22.25
2022-10-22T15:37:11.361Z,22.25
2022-10-22T15:39:42.247Z,22.26
2022-10-22T15:42:09.820Z,22.26
2022-10-22T15:44:36.692Z,22.25
2022-10-22T15:47:04.910Z,22.26
2022-10-22T15:49:33.486Z,22.26
2022-10-22T15:52:00.140Z,22.26
2022-10-22T15:54:28.610Z,22.26
2022-10-22T15:56:56.532Z,22.27
2022-10-22T15:59:23.105Z,22.28
2022-10-22T16:01:50.161Z,22.28
2022-10-22T16:04:17.164Z,22.28
2022-10-22T16:06:47.310Z,22.29
2022-10-22T16:09:17.185Z,22.28
2022-10-22T16:11:44.925Z,22.29
2022-10-22T16:14:12.827Z,22.29
2022-10-22T16:16:43.375Z,22.29
2022-10-22T16:19:12.768Z,22.29
2022-10-22T16:21:39.794Z,22.29
2022-10-22T16:24:07.871Z,22.30
2022-10-22T16:26:35.738Z,22.29
2022-10-22T16:29:02.840Z,22.30
2022-10-22T16:31:29.336Z,22.30
2022-10-22T16:33:56.219Z,22.30
2022-10-22T16:36:22.804Z,22.30
2022-10-22T16:38:49.696Z,22.30
2022-10-22T16:41:17.897Z,22.30
2022-10-22T16:43:48.324Z,22.30
2022-10-22T16:46:20.058Z,22.31
2022-10-22T16:48:50.817Z,22.30
2022-10-22T16:51:21.107Z,22.31
2022-10-22T16:53:48.045Z,22.32
2022-10-22T16:56:16.238Z,22.32
2022-10-22T16:58:50.888Z,22.31
2022-10-22T17:01:19.488Z,22.25
2022-10-22T17:03:46.563Z,22.34
2022-10-22T17:06:14.200Z,22.34
2022-10-22T17:08:41.834Z,22.36
2022-10-22T17:11:17.183Z,22.35
2022-10-22T17:13:45.910Z,22.36
2022-10-22T17:16:15.497Z,22.37
2022-10-22T17:21:17.447Z,22.38
2022-10-22T17:23:44.324Z,22.38
2022-10-22T17:26:20.925Z,22.40
2022-10-22T17:28:49.013Z,22.39
2022-10-22T17:31:16.003Z,22.41
2022-10-22T17:33:43.208Z,22.43
2022-10-22T17:36:12.665Z,22.43
2022-10-22T17:38:40.969Z,22.44
2022-10-22T17:41:13.807Z,22.45
2022-10-22T17:43:41.484Z,22.45
2022-10-22T17:46:11.185Z,22.45
2022-10-22T17:48:37.821Z,22.45
2022-10-22T17:51:11.687Z,22.45
2022-10-22T17:53:46.019Z,22.45
2022-10-22T17:56:17.376Z,22.44
2022-10-22T17:58:44.272Z,22.45
2022-10-22T18:01:21.841Z,22.44
2022-10-22T18:03:49.115Z,22.35
2022-10-22T18:06:15.679Z,22.44
2022-10-22T18:08:42.455Z,22.44
2022-10-22T18:11:11.209Z,22.44
2022-10-22T18:13:38.232Z,22.45
2022-10-22T18:16:05.925Z,22.45
2022-10-22T18:18:34.707Z,22.45
2022-10-22T18:21:01.790Z,22.42
2022-10-22T18:23:28.652Z,22.46
2022-10-22T18:25:55.800Z,22.46
2022-10-22T18:28:22.535Z,22.46
2022-10-22T18:30:49.248Z,22.43
2022-10-22T18:33:17.980Z,22.46
2022-10-22T18:35:46.416Z,22.46
2022-10-22T18:38:13.427Z,22.46
2022-10-22T18:40:46.816Z,22.47
2022-10-22T18:43:13.680Z,22.46
2022-10-22T18:45:44.495Z,22.45
2022-10-22T18:48:14.459Z,22.45
2022-10-22T18:50:41.587Z,22.42
2022-10-22T18:53:08.796Z,22.46
2022-10-22T18:55:39.654Z,22.46
2022-10-22T18:58:06.945Z,22.41
2022-10-22T19:00:35.525Z,22.48
2022-10-22T19:03:03.288Z,22.51
2022-10-22T19:05:29.975Z,22.54
2022-10-22T19:07:56.670Z,22.55
2022-10-22T19:12:35.373Z,22.60
2022-10-22T19:15:01.988Z,22.62
2022-10-22T19:17:28.509Z,22.63
2022-10-22T19:19:55.052Z,22.62
2022-10-22T19:22:21.609Z,22.65
2022-10-22T19:24:49.840Z,22.66
2022-10-22T19:27:17.195Z,22.68
2022-10-22T19:29:44.966Z,22.70
2022-10-22T19:32:14.364Z,22.71
2022-10-22T19:34:41.206Z,22.70
2022-10-22T19:37:08.031Z,22.70
2022-10-22T19:39:34.926Z,22.65
2022-10-22T19:42:01.662Z,22.75
2022-10-22T19:44:28.309Z,22.75
2022-10-22T19:46:54.941Z,22.76
2022-10-22T19:49:23.003Z,22.77
2022-10-22T19:51:49.937Z,22.77
2022-10-22T19:54:18.703Z,22.78
2022-10-22T19:56:46.712Z,22.80
2022-10-22T19:59:14.802Z,22.68
2022-10-22T20:01:42.396Z,22.81
2022-10-22T20:04:16.303Z,22.83
2022-10-22T20:06:43.524Z,22.83
2022-10-22T20:09:11.119Z,22.84
2022-10-22T20:11:41.401Z,22.82
2022-10-22T20:14:07.897Z,22.86
2022-10-22T20:16:36.022Z,22.87
2022-10-22T20:19:05.539Z,22.86
2022-10-22T20:21:33.360Z,22.89
2022-10-22T20:24:00.211Z,22.89
2022-10-22T20:26:28.530Z,22.89
2022-10-22T20:28:56.389Z,22.89
2022-10-22T20:31:26.963Z,22.89
2022-10-22T20:33:56.774Z,22.88
2022-10-22T20:36:24.192Z,22.89
2022-10-22T20:38:51.869Z,22.89
2022-10-22T20:41:23.131Z,22.80
2022-10-22T20:43:51.265Z,22.90
2022-10-22T20:46:20.780Z,22.90
2022-10-22T20:48:51.138Z,22.90
2022-10-22T20:51:17.824Z,22.90
2022-10-22T20:53:44.342Z,22.80
2022-10-22T20:56:11.547Z,22.78
2022-10-22T20:58:38.824Z,22.87
2022-10-22T21:01:10.460Z,22.90
2022-10-22T21:03:37.842Z,22.89
2022-10-22T21:06:05.840Z,22.90
2022-10-22T21:08:32.705Z,22.89
2022-10-22T21:10:59.299Z,22.90
2022-10-22T21:13:25.968Z,22.89
2022-10-22T21:15:52.471Z,22.88
2022-10-22T21:18:19.094Z,22.89
2022-10-22T21:20:45.571Z,22.88
2022-10-22T21:23:15.128Z,22.89
2022-10-22T21:25:43.383Z,22.89
2022-10-22T21:28:10.942Z,22.88
2022-10-22T21:30:44.642Z,22.89
2022-10-22T21:33:12.468Z,22.88
2022-10-22T21:35:39.060Z,22.88
2022-10-22T21:38:07.783Z,22.88
2022-10-22T21:40:37.370Z,22.87
2022-10-22T21:43:03.976Z,22.88
2022-10-22T21:50:18.617Z,22.86
2022-10-22T21:52:45.221Z,22.86
2022-10-22T21:55:11.701Z,22.86
2022-10-22T21:57:38.232Z,22.83
2022-10-22T22:00:07.374Z,22.85
2022-10-22T22:02:34.317Z,22.85
2022-10-22T22:05:00.853Z,22.85
2022-10-22T22:07:27.453Z,22.86
2022-10-22T22:09:53.977Z,22.85
2022-10-22T22:12:21.170Z,22.85
2022-10-22T22:14:47.833Z,22.85
2022-10-22T22:17:16.405Z,22.84
2022-10-22T22:19:42.944Z,22.85
2022-10-22T22:22:09.561Z,22.85
2022-10-22T22:24:37.624Z,22.77
2022-10-22T22:27:04.337Z,22.84
2022-10-22T22:29:30.823Z,22.85
2022-10-22T22:31:57.461Z,22.85
2022-10-22T22:34:23.992Z,22.85
2022-10-22T22:36:50.594Z,22.85
2022-10-22T22:39:21.257Z,22.84
2022-10-22T22:41:47.987Z,22.84
2022-10-22T22:44:15.459Z,22.84
2022-10-22T22:46:42.487Z,22.75
2022-10-22T22:49:09.538Z,22.84
2022-10-22T22:51:36.261Z,22.80
2022-10-22T22:54:02.879Z,22.84
2022-10-22T22:56:31.723Z,22.78
2022-10-22T22:58:58.564Z,22.83
2022-10-22T23:01:37.379Z,22.83
2022-10-22T23:04:11.652Z,22.82
2022-10-22T23:06:39.502Z,22.82
2022-10-22T23:09:09.318Z,22.83
2022-10-22T23:11:36.361Z,22.83
2022-10-22T23:14:04.935Z,22.82
2022-10-22T23:16:33.924Z,22.83
2022-10-22T23:19:01.166Z,22.83
2022-10-22T23:21:32.902Z,22.70
2022-10-22T23:24:01.981Z,22.82
2022-10-22T23:26:31.753Z,22.83
2022-10-22T23:29:02.865Z,22.76
2022-10-22T23:31:29.847Z,22.81
2022-10-22T23:33:56.408Z,22.82
2022-10-22T23:36:23.161Z,22.81
2022-10-22T23:38:50.287Z,22.82
2022-10-22T23:41:17.471Z,22.82
2022-10-22T23:43:44.049Z,22.82
2022-10-22T23:46:12.862Z,22.81
2022-10-22T23:48:40.173Z,22.82
2022-10-22T23:51:12.252Z,22.81
2022-10-22T23:53:39.119Z,22.80
2022-10-22T23:56:11.117Z,22.81
2022-10-22T23:58:39.550Z,22.80
